sensor_id;sensor_type;location;lat;lon;timestamp;temperature;humidity
51215;DHT22;63849;47.546;19.254;2023-05-15T00:00:09;12.40;93.80
51215;DHT22;63849;47.546;19.254;2023-05-15T00:02:36;12.40;93.80
51215;DHT22;63849;47.546;19.254;2023-05-15T00:05:03;12.40;93.70
51215;DHT22;63849;47.546;19.254;2023-05-15T00:07:31;12.50;93.80
51215;DHT22;63849;47.546;19.254;2023-05-15T00:09:57;12.50;93.70
51215;DHT22;63849;47.546;19.254;2023-05-15T00:12:22;12.50;93.80
51215;DHT22;63849;47.546;19.254;2023-05-15T00:14:48;12.40;93.80
51215;DHT22;63849;47.546;19.254;2023-05-15T00:17:14;12.50;93.80
51215;DHT22;63849;47.546;19.254;2023-05-15T00:19:40;12.40;93.80
51215;DHT22;63849;47.546;19.254;2023-05-15T00:22:05;12.50;93.80
51215;DHT22;63849;47.546;19.254;2023-05-15T00:24:32;12.50;93.80
51215;DHT22;63849;47.546;19.254;2023-05-15T00:26:59;12.40;93.80
51215;DHT22;63849;47.546;19.254;2023-05-15T00:29:25;12.40;93.80
51215;DHT22;63849;47.546;19.254;2023-05-15T00:31:50;12.50;93.90
51215;DHT22;63849;47.546;19.254;2023-05-15T00:34:16;12.50;93.90
51215;DHT22;63849;47.546;19.254;2023-05-15T00:36:43;12.50;93.90
51215;DHT22;63849;47.546;19.254;2023-05-15T00:39:09;12.50;93.90
51215;DHT22;63849;47.546;19.254;2023-05-15T00:41:36;12.50;93.90
51215;DHT22;63849;47.546;19.254;2023-05-15T00:44:02;12.50;93.90
51215;DHT22;63849;47.546;19.254;2023-05-15T00:46:30;12.50;93.90
51215;DHT22;63849;47.546;19.254;2023-05-15T00:48:57;12.40;93.90
51215;DHT22;63849;47.546;19.254;2023-05-15T00:51:25;12.50;93.90
51215;DHT22;63849;47.546;19.254;2023-05-15T00:53:51;12.50;93.80
51215;DHT22;63849;47.546;19.254;2023-05-15T00:56:17;12.50;93.90
51215;DHT22;63849;47.546;19.254;2023-05-15T00:58:45;12.50;93.80
51215;DHT22;63849;47.546;19.254;2023-05-15T01:01:16;12.50;93.80
51215;DHT22;63849;47.546;19.254;2023-05-15T01:03:45;12.50;93.70
51215;DHT22;63849;47.546;19.254;2023-05-15T01:06:11;12.50;93.70
51215;DHT22;63849;47.546;19.254;2023-05-15T01:08:42;12.60;93.80
51215;DHT22;63849;47.546;19.254;2023-05-15T01:11:11;12.60;93.60
51215;DHT22;63849;47.546;19.254;2023-05-15T01:13:38;12.50;93.60
51215;DHT22;63849;47.546;19.254;2023-05-15T01:16:04;12.50;93.70
51215;DHT22;63849;47.546;19.254;2023-05-15T01:18:31;12.60;93.70
51215;DHT22;63849;47.546;19.254;2023-05-15T01:29:19;12.60;93.50
51215;DHT22;63849;47.546;19.254;2023-05-15T01:31:53;12.50;93.50
51215;DHT22;63849;47.546;19.254;2023-05-15T01:34:24;12.60;93.70
51215;DHT22;63849;47.546;19.254;2023-05-15T01:36:55;12.60;93.70
51215;DHT22;63849;47.546;19.254;2023-05-15T01:39:23;12.50;93.70
51215;DHT22;63849;47.546;19.254;2023-05-15T01:42:01;12.60;93.70
51215;DHT22;63849;47.546;19.254;2023-05-15T01:44:30;12.60;93.60
51215;DHT22;63849;47.546;19.254;2023-05-15T01:46:58;12.60;93.70
51215;DHT22;63849;47.546;19.254;2023-05-15T01:49:29;12.60;93.60
51215;DHT22;63849;47.546;19.254;2023-05-15T01:52:43;12.70;93.70
51215;DHT22;63849;47.546;19.254;2023-05-15T01:54:50;12.60;93.50
51215;DHT22;63849;47.546;19.254;2023-05-15T01:57:17;12.60;93.60
51215;DHT22;63849;47.546;19.254;2023-05-15T01:59:44;12.50;93.50
51215;DHT22;63849;47.546;19.254;2023-05-15T02:02:10;12.60;93.60
51215;DHT22;63849;47.546;19.254;2023-05-15T02:04:37;12.60;93.60
51215;DHT22;63849;47.546;19.254;2023-05-15T02:07:05;12.50;93.50
51215;DHT22;63849;47.546;19.254;2023-05-15T02:09:32;12.60;93.40
51215;DHT22;63849;47.546;19.254;2023-05-15T02:12:00;12.50;93.50
51215;DHT22;63849;47.546;19.254;2023-05-15T02:14:28;12.50;93.60
51215;DHT22;63849;47.546;19.254;2023-05-15T02:16:54;12.40;93.70
51215;DHT22;63849;47.546;19.254;2023-05-15T02:19:20;12.40;93.70
51215;DHT22;63849;47.546;19.254;2023-05-15T02:21:46;12.40;93.70
51215;DHT22;63849;47.546;19.254;2023-05-15T02:24:12;12.40;93.80
51215;DHT22;63849;47.546;19.254;2023-05-15T02:26:42;12.40;93.90
51215;DHT22;63849;47.546;19.254;2023-05-15T02:34:43;12.40;94.10
51215;DHT22;63849;47.546;19.254;2023-05-15T02:37:13;12.40;94.00
51215;DHT22;63849;47.546;19.254;2023-05-15T02:39:41;12.50;93.90
51215;DHT22;63849;47.546;19.254;2023-05-15T02:42:09;12.60;94.00
51215;DHT22;63849;47.546;19.254;2023-05-15T02:44:36;12.60;93.90
51215;DHT22;63849;47.546;19.254;2023-05-15T02:47:04;12.60;93.90
51215;DHT22;63849;47.546;19.254;2023-05-15T02:49:30;12.60;93.80
51215;DHT22;63849;47.546;19.254;2023-05-15T02:51:56;12.70;93.90
51215;DHT22;63849;47.546;19.254;2023-05-15T02:54:22;12.80;93.90
51215;DHT22;63849;47.546;19.254;2023-05-15T02:56:47;12.80;93.80
51215;DHT22;63849;47.546;19.254;2023-05-15T02:59:13;12.80;93.80
51215;DHT22;63849;47.546;19.254;2023-05-15T03:01:45;12.80;93.70
51215;DHT22;63849;47.546;19.254;2023-05-15T03:04:13;12.80;93.70
51215;DHT22;63849;47.546;19.254;2023-05-15T03:06:39;12.80;93.70
51215;DHT22;63849;47.546;19.254;2023-05-15T03:09:05;12.80;93.70
51215;DHT22;63849;47.546;19.254;2023-05-15T03:11:31;12.80;93.70
51215;DHT22;63849;47.546;19.254;2023-05-15T03:13:56;12.90;93.70
51215;DHT22;63849;47.546;19.254;2023-05-15T03:16:25;12.80;93.70
51215;DHT22;63849;47.546;19.254;2023-05-15T03:18:51;12.80;93.70
51215;DHT22;63849;47.546;19.254;2023-05-15T03:21:17;12.80;93.70
51215;DHT22;63849;47.546;19.254;2023-05-15T03:23:43;12.80;93.70
51215;DHT22;63849;47.546;19.254;2023-05-15T03:26:09;12.90;93.80
51215;DHT22;63849;47.546;19.254;2023-05-15T03:28:36;12.90;93.70
51215;DHT22;63849;47.546;19.254;2023-05-15T03:31:02;12.90;93.60
51215;DHT22;63849;47.546;19.254;2023-05-15T03:33:33;12.80;93.60
51215;DHT22;63849;47.546;19.254;2023-05-15T03:35:59;12.90;93.60
51215;DHT22;63849;47.546;19.254;2023-05-15T03:38:24;12.90;93.60
51215;DHT22;63849;47.546;19.254;2023-05-15T03:40:50;12.80;93.60
51215;DHT22;63849;47.546;19.254;2023-05-15T03:43:16;12.80;93.60
51215;DHT22;63849;47.546;19.254;2023-05-15T03:45:42;12.80;93.60
51215;DHT22;63849;47.546;19.254;2023-05-15T03:48:09;12.80;93.50
51215;DHT22;63849;47.546;19.254;2023-05-15T03:50:34;12.80;93.60
51215;DHT22;63849;47.546;19.254;2023-05-15T03:53:02;12.90;93.70
51215;DHT22;63849;47.546;19.254;2023-05-15T03:55:27;12.90;93.60
51215;DHT22;63849;47.546;19.254;2023-05-15T03:57:53;12.90;93.60
51215;DHT22;63849;47.546;19.254;2023-05-15T04:00:19;13.00;93.60
51215;DHT22;63849;47.546;19.254;2023-05-15T04:02:45;13.00;93.40
51215;DHT22;63849;47.546;19.254;2023-05-15T04:05:11;12.90;93.30
51215;DHT22;63849;47.546;19.254;2023-05-15T04:07:37;12.90;93.50
51215;DHT22;63849;47.546;19.254;2023-05-15T04:10:03;12.90;93.60
51215;DHT22;63849;47.546;19.254;2023-05-15T04:12:32;12.90;93.60
51215;DHT22;63849;47.546;19.254;2023-05-15T04:15:21;12.90;93.40
51215;DHT22;63849;47.546;19.254;2023-05-15T04:17:50;12.90;93.50
51215;DHT22;63849;47.546;19.254;2023-05-15T04:20:18;13.00;93.50
51215;DHT22;63849;47.546;19.254;2023-05-15T04:22:44;13.10;93.50
51215;DHT22;63849;47.546;19.254;2023-05-15T04:25:13;13.20;93.50
51215;DHT22;63849;47.546;19.254;2023-05-15T04:27:41;13.10;93.30
51215;DHT22;63849;47.546;19.254;2023-05-15T04:30:08;13.10;93.40
51215;DHT22;63849;47.546;19.254;2023-05-15T04:32:34;13.10;93.40
51215;DHT22;63849;47.546;19.254;2023-05-15T04:35:04;13.20;93.50
51215;DHT22;63849;47.546;19.254;2023-05-15T04:37:32;13.20;93.50
51215;DHT22;63849;47.546;19.254;2023-05-15T04:39:57;13.20;93.30
51215;DHT22;63849;47.546;19.254;2023-05-15T04:42:23;13.10;93.40
51215;DHT22;63849;47.546;19.254;2023-05-15T04:44:49;13.20;93.40
51215;DHT22;63849;47.546;19.254;2023-05-15T04:47:15;13.40;93.40
51215;DHT22;63849;47.546;19.254;2023-05-15T04:49:41;13.30;93.30
51215;DHT22;63849;47.546;19.254;2023-05-15T04:52:07;13.40;93.30
51215;DHT22;63849;47.546;19.254;2023-05-15T04:54:33;13.40;93.30
51215;DHT22;63849;47.546;19.254;2023-05-15T04:56:59;13.50;93.20
51215;DHT22;63849;47.546;19.254;2023-05-15T04:59:24;13.50;93.10
51215;DHT22;63849;47.546;19.254;2023-05-15T05:01:52;13.50;93.00
51215;DHT22;63849;47.546;19.254;2023-05-15T05:04:17;13.60;93.00
51215;DHT22;63849;47.546;19.254;2023-05-15T05:06:48;13.60;92.90
51215;DHT22;63849;47.546;19.254;2023-05-15T05:09:14;13.60;92.80
51215;DHT22;63849;47.546;19.254;2023-05-15T05:11:40;13.70;92.80
51215;DHT22;63849;47.546;19.254;2023-05-15T05:14:09;13.70;92.70
51215;DHT22;63849;47.546;19.254;2023-05-15T05:16:36;13.80;92.70
51215;DHT22;63849;47.546;19.254;2023-05-15T05:19:02;13.70;92.70
51215;DHT22;63849;47.546;19.254;2023-05-15T05:21:28;13.70;92.50
51215;DHT22;63849;47.546;19.254;2023-05-15T05:23:54;13.70;92.60
51215;DHT22;63849;47.546;19.254;2023-05-15T05:26:20;13.80;92.70
51215;DHT22;63849;47.546;19.254;2023-05-15T05:28:46;13.80;92.50
51215;DHT22;63849;47.546;19.254;2023-05-15T05:31:12;13.70;92.40
51215;DHT22;63849;47.546;19.254;2023-05-15T05:33:39;13.60;92.60
51215;DHT22;63849;47.546;19.254;2023-05-15T05:36:05;13.70;92.60
51215;DHT22;63849;47.546;19.254;2023-05-15T05:38:31;13.70;92.60
51215;DHT22;63849;47.546;19.254;2023-05-15T05:40:57;13.70;92.70
51215;DHT22;63849;47.546;19.254;2023-05-15T05:43:24;13.60;92.60
51215;DHT22;63849;47.546;19.254;2023-05-15T05:45:50;13.60;92.70
51215;DHT22;63849;47.546;19.254;2023-05-15T05:48:16;13.60;92.60
51215;DHT22;63849;47.546;19.254;2023-05-15T05:50:42;13.60;92.50
51215;DHT22;63849;47.546;19.254;2023-05-15T05:53:08;13.60;92.70
51215;DHT22;63849;47.546;19.254;2023-05-15T05:55:34;13.60;92.70
51215;DHT22;63849;47.546;19.254;2023-05-15T05:57:59;13.60;92.80
51215;DHT22;63849;47.546;19.254;2023-05-15T06:00:26;13.70;92.80
51215;DHT22;63849;47.546;19.254;2023-05-15T06:02:58;13.80;92.70
51215;DHT22;63849;47.546;19.254;2023-05-15T06:05:28;13.80;92.70
51215;DHT22;63849;47.546;19.254;2023-05-15T06:07:54;13.80;92.70
51215;DHT22;63849;47.546;19.254;2023-05-15T06:10:20;13.90;92.70
51215;DHT22;63849;47.546;19.254;2023-05-15T06:12:46;13.90;92.50
51215;DHT22;63849;47.546;19.254;2023-05-15T06:15:12;13.90;92.20
51215;DHT22;63849;47.546;19.254;2023-05-15T06:17:39;13.90;92.30
51215;DHT22;63849;47.546;19.254;2023-05-15T06:20:05;13.90;92.20
51215;DHT22;63849;47.546;19.254;2023-05-15T06:22:32;13.90;92.30
51215;DHT22;63849;47.546;19.254;2023-05-15T06:24:58;14.00;92.20
51215;DHT22;63849;47.546;19.254;2023-05-15T06:27:24;14.00;92.10
51215;DHT22;63849;47.546;19.254;2023-05-15T06:29:51;14.10;92.10
51215;DHT22;63849;47.546;19.254;2023-05-15T06:32:16;14.10;91.90
51215;DHT22;63849;47.546;19.254;2023-05-15T06:34:42;14.10;91.70
51215;DHT22;63849;47.546;19.254;2023-05-15T06:37:08;14.00;91.30
51215;DHT22;63849;47.546;19.254;2023-05-15T06:39:34;14.00;91.80
51215;DHT22;63849;47.546;19.254;2023-05-15T06:42:00;14.10;91.70
51215;DHT22;63849;47.546;19.254;2023-05-15T06:44:32;14.30;91.60
51215;DHT22;63849;47.546;19.254;2023-05-15T06:46:58;14.20;90.80
51215;DHT22;63849;47.546;19.254;2023-05-15T06:49:25;14.20;90.70
51215;DHT22;63849;47.546;19.254;2023-05-15T06:51:51;14.20;91.50
51215;DHT22;63849;47.546;19.254;2023-05-15T06:54:17;14.40;90.40
51215;DHT22;63849;47.546;19.254;2023-05-15T06:56:43;14.60;89.80
51215;DHT22;63849;47.546;19.254;2023-05-15T06:59:11;14.80;89.50
51215;DHT22;63849;47.546;19.254;2023-05-15T07:01:37;15.10;89.30
51215;DHT22;63849;47.546;19.254;2023-05-15T07:04:03;15.20;88.60
51215;DHT22;63849;47.546;19.254;2023-05-15T07:06:29;15.30;88.50
51215;DHT22;63849;47.546;19.254;2023-05-15T07:08:57;15.30;88.50
51215;DHT22;63849;47.546;19.254;2023-05-15T07:11:26;15.80;88.00
51215;DHT22;63849;47.546;19.254;2023-05-15T07:13:52;16.20;86.30
51215;DHT22;63849;47.546;19.254;2023-05-15T07:16:18;16.40;85.60
51215;DHT22;63849;47.546;19.254;2023-05-15T07:18:44;16.70;85.90
51215;DHT22;63849;47.546;19.254;2023-05-15T07:21:10;16.60;84.40
51215;DHT22;63849;47.546;19.254;2023-05-15T07:23:36;16.80;85.10
51215;DHT22;63849;47.546;19.254;2023-05-15T07:26:02;16.70;84.20
51215;DHT22;63849;47.546;19.254;2023-05-15T07:28:28;16.90;84.20
51215;DHT22;63849;47.546;19.254;2023-05-15T07:30:53;17.40;83.00
51215;DHT22;63849;47.546;19.254;2023-05-15T07:33:19;17.60;82.50
51215;DHT22;63849;47.546;19.254;2023-05-15T07:35:45;17.50;83.00
51215;DHT22;63849;47.546;19.254;2023-05-15T07:38:11;17.50;83.70
51215;DHT22;63849;47.546;19.254;2023-05-15T07:40:37;17.50;84.10
51215;DHT22;63849;47.546;19.254;2023-05-15T07:43:03;17.30;83.30
51215;DHT22;63849;47.546;19.254;2023-05-15T07:45:28;17.20;84.50
51215;DHT22;63849;47.546;19.254;2023-05-15T07:47:54;17.80;83.40
51215;DHT22;63849;47.546;19.254;2023-05-15T07:50:20;18.00;82.30
51215;DHT22;63849;47.546;19.254;2023-05-15T07:52:46;17.90;82.20
51215;DHT22;63849;47.546;19.254;2023-05-15T07:55:12;17.90;81.70
51215;DHT22;63849;47.546;19.254;2023-05-15T07:57:37;17.80;82.70
51215;DHT22;63849;47.546;19.254;2023-05-15T08:00:07;17.90;82.70
51215;DHT22;63849;47.546;19.254;2023-05-15T08:02:37;18.30;81.70
51215;DHT22;63849;47.546;19.254;2023-05-15T08:05:03;18.50;81.30
51215;DHT22;63849;47.546;19.254;2023-05-15T08:07:34;18.80;79.90
51215;DHT22;63849;47.546;19.254;2023-05-15T08:10:00;18.90;79.50
51215;DHT22;63849;47.546;19.254;2023-05-15T08:12:26;18.80;79.70
51215;DHT22;63849;47.546;19.254;2023-05-15T08:14:53;18.90;80.30
51215;DHT22;63849;47.546;19.254;2023-05-15T08:17:19;19.00;80.10
51215;DHT22;63849;47.546;19.254;2023-05-15T08:19:46;19.00;78.20
51215;DHT22;63849;47.546;19.254;2023-05-15T08:22:12;18.90;80.00
51215;DHT22;63849;47.546;19.254;2023-05-15T08:24:40;18.60;80.80
51215;DHT22;63849;47.546;19.254;2023-05-15T08:27:07;18.90;79.60
51215;DHT22;63849;47.546;19.254;2023-05-15T08:29:37;19.20;79.70
51215;DHT22;63849;47.546;19.254;2023-05-15T08:32:05;19.20;77.40
51215;DHT22;63849;47.546;19.254;2023-05-15T08:34:31;19.30;77.20
51215;DHT22;63849;47.546;19.254;2023-05-15T08:36:57;19.30;78.60
51215;DHT22;63849;47.546;19.254;2023-05-15T08:39:23;19.40;78.40
51215;DHT22;63849;47.546;19.254;2023-05-15T08:41:55;19.80;77.60
51215;DHT22;63849;47.546;19.254;2023-05-15T08:44:22;20.10;77.60
51215;DHT22;63849;47.546;19.254;2023-05-15T08:46:48;20.40;76.20
51215;DHT22;63849;47.546;19.254;2023-05-15T08:51:55;20.10;75.80
51215;DHT22;63849;47.546;19.254;2023-05-15T08:54:21;20.10;76.60
51215;DHT22;63849;47.546;19.254;2023-05-15T08:56:47;20.00;75.50
51215;DHT22;63849;47.546;19.254;2023-05-15T08:59:13;19.80;76.30
51215;DHT22;63849;47.546;19.254;2023-05-15T09:01:39;19.60;75.90
51215;DHT22;63849;47.546;19.254;2023-05-15T09:04:04;19.50;77.40
51215;DHT22;63849;47.546;19.254;2023-05-15T09:06:32;19.50;77.40
51215;DHT22;63849;47.546;19.254;2023-05-15T09:09:00;19.50;76.30
51215;DHT22;63849;47.546;19.254;2023-05-15T09:11:26;19.40;74.90
51215;DHT22;63849;47.546;19.254;2023-05-15T09:13:55;19.40;75.70
51215;DHT22;63849;47.546;19.254;2023-05-15T09:16:22;19.30;77.60
51215;DHT22;63849;47.546;19.254;2023-05-15T09:18:48;19.10;76.50
51215;DHT22;63849;47.546;19.254;2023-05-15T09:21:28;19.20;76.80
51215;DHT22;63849;47.546;19.254;2023-05-15T09:26:44;19.50;77.70
51215;DHT22;63849;47.546;19.254;2023-05-15T09:29:10;19.50;75.90
51215;DHT22;63849;47.546;19.254;2023-05-15T09:31:36;19.60;72.40
51215;DHT22;63849;47.546;19.254;2023-05-15T09:34:02;19.20;76.00
51215;DHT22;63849;47.546;19.254;2023-05-15T09:36:30;19.30;77.20
51215;DHT22;63849;47.546;19.254;2023-05-15T09:38:58;19.40;75.70
51215;DHT22;63849;47.546;19.254;2023-05-15T09:41:25;19.30;75.60
51215;DHT22;63849;47.546;19.254;2023-05-15T09:43:55;19.40;76.90
51215;DHT22;63849;47.546;19.254;2023-05-15T09:46:25;19.50;74.70
51215;DHT22;63849;47.546;19.254;2023-05-15T09:48:54;19.70;74.70
51215;DHT22;63849;47.546;19.254;2023-05-15T09:51:20;19.90;75.90
51215;DHT22;63849;47.546;19.254;2023-05-15T09:53:53;19.90;76.30
51215;DHT22;63849;47.546;19.254;2023-05-15T09:56:19;19.80;76.40
51215;DHT22;63849;47.546;19.254;2023-05-15T09:58:52;19.60;77.40
51215;DHT22;63849;47.546;19.254;2023-05-15T10:01:20;19.50;77.30
51215;DHT22;63849;47.546;19.254;2023-05-15T10:04:03;19.60;76.70
51215;DHT22;63849;47.546;19.254;2023-05-15T10:06:44;19.50;77.80
51215;DHT22;63849;47.546;19.254;2023-05-15T10:09:11;19.60;77.90
51215;DHT22;63849;47.546;19.254;2023-05-15T10:11:40;19.80;77.20
51215;DHT22;63849;47.546;19.254;2023-05-15T10:14:10;19.90;76.50
51215;DHT22;63849;47.546;19.254;2023-05-15T10:16:40;19.90;76.00
51215;DHT22;63849;47.546;19.254;2023-05-15T10:19:07;19.80;73.80
51215;DHT22;63849;47.546;19.254;2023-05-15T10:21:36;19.80;75.30
51215;DHT22;63849;47.546;19.254;2023-05-15T10:24:03;19.80;75.30
51215;DHT22;63849;47.546;19.254;2023-05-15T10:26:42;19.70;76.00
51215;DHT22;63849;47.546;19.254;2023-05-15T10:29:12;19.60;75.70
51215;DHT22;63849;47.546;19.254;2023-05-15T10:31:39;19.50;76.90
51215;DHT22;63849;47.546;19.254;2023-05-15T10:34:06;19.60;76.70
51215;DHT22;63849;47.546;19.254;2023-05-15T10:36:33;19.90;76.40
51215;DHT22;63849;47.546;19.254;2023-05-15T10:39:00;20.30;75.20
51215;DHT22;63849;47.546;19.254;2023-05-15T10:41:27;20.40;73.70
51215;DHT22;63849;47.546;19.254;2023-05-15T10:43:58;20.40;73.20
51215;DHT22;63849;47.546;19.254;2023-05-15T10:46:25;20.60;72.90
51215;DHT22;63849;47.546;19.254;2023-05-15T10:48:51;20.60;71.20
51215;DHT22;63849;47.546;19.254;2023-05-15T10:51:22;20.70;72.20
51215;DHT22;63849;47.546;19.254;2023-05-15T10:53:48;20.70;71.20
51215;DHT22;63849;47.546;19.254;2023-05-15T10:56:17;20.50;72.10
51215;DHT22;63849;47.546;19.254;2023-05-15T10:58:50;20.30;72.70
51215;DHT22;63849;47.546;19.254;2023-05-15T11:01:28;19.90;72.30
51215;DHT22;63849;47.546;19.254;2023-05-15T11:04:16;19.30;73.90
51215;DHT22;63849;47.546;19.254;2023-05-15T11:06:44;19.10;75.50
51215;DHT22;63849;47.546;19.254;2023-05-15T11:09:32;18.90;75.40
51215;DHT22;63849;47.546;19.254;2023-05-15T11:11:59;18.70;76.80
51215;DHT22;63849;47.546;19.254;2023-05-15T11:14:27;18.40;77.90
51215;DHT22;63849;47.546;19.254;2023-05-15T11:30:22;17.60;79.30
51215;DHT22;63849;47.546;19.254;2023-05-15T11:32:58;17.90;80.00
51215;DHT22;63849;47.546;19.254;2023-05-15T11:35:28;18.20;78.90
51215;DHT22;63849;47.546;19.254;2023-05-15T11:38:03;18.40;78.30
51215;DHT22;63849;47.546;19.254;2023-05-15T11:40:49;18.50;75.90
51215;DHT22;63849;47.546;19.254;2023-05-15T11:43:35;18.50;75.10
51215;DHT22;63849;47.546;19.254;2023-05-15T11:46:06;18.60;76.50
51215;DHT22;63849;47.546;19.254;2023-05-15T11:48:49;18.80;77.40
51215;DHT22;63849;47.546;19.254;2023-05-15T11:51:20;19.00;76.30
51215;DHT22;63849;47.546;19.254;2023-05-15T11:53:48;19.10;75.70
51215;DHT22;63849;47.546;19.254;2023-05-15T11:56:22;19.20;74.60
51215;DHT22;63849;47.546;19.254;2023-05-15T11:58:55;19.50;74.20
51215;DHT22;63849;47.546;19.254;2023-05-15T12:01:22;19.90;73.50
51215;DHT22;63849;47.546;19.254;2023-05-15T12:03:48;20.10;72.40
51215;DHT22;63849;47.546;19.254;2023-05-15T12:06:14;20.10;69.70
51215;DHT22;63849;47.546;19.254;2023-05-15T12:08:40;20.10;67.60
51215;DHT22;63849;47.546;19.254;2023-05-15T12:11:07;20.10;70.70
51215;DHT22;63849;47.546;19.254;2023-05-15T12:13:33;19.90;71.30
51215;DHT22;63849;47.546;19.254;2023-05-15T12:16:00;19.80;71.50
51215;DHT22;63849;47.546;19.254;2023-05-15T12:18:26;19.90;72.40
51215;DHT22;63849;47.546;19.254;2023-05-15T12:20:53;19.90;70.10
51215;DHT22;63849;47.546;19.254;2023-05-15T12:23:23;20.10;68.10
51215;DHT22;63849;47.546;19.254;2023-05-15T12:25:52;20.00;73.00
51215;DHT22;63849;47.546;19.254;2023-05-15T12:28:19;20.10;73.70
51215;DHT22;63849;47.546;19.254;2023-05-15T12:30:46;19.80;71.20
51215;DHT22;63849;47.546;19.254;2023-05-15T12:33:12;19.50;71.80
51215;DHT22;63849;47.546;19.254;2023-05-15T12:35:42;19.40;73.50
51215;DHT22;63849;47.546;19.254;2023-05-15T12:38:13;19.30;74.50
51215;DHT22;63849;47.546;19.254;2023-05-15T12:40:40;19.20;75.20
51215;DHT22;63849;47.546;19.254;2023-05-15T12:43:08;19.00;74.90
51215;DHT22;63849;47.546;19.254;2023-05-15T12:45:37;19.20;75.40
51215;DHT22;63849;47.546;19.254;2023-05-15T12:48:03;19.40;74.90
51215;DHT22;63849;47.546;19.254;2023-05-15T12:50:32;19.40;74.00
51215;DHT22;63849;47.546;19.254;2023-05-15T12:53:01;19.40;73.50
51215;DHT22;63849;47.546;19.254;2023-05-15T12:55:32;19.60;74.60
51215;DHT22;63849;47.546;19.254;2023-05-15T12:58:01;19.50;73.10
51215;DHT22;63849;47.546;19.254;2023-05-15T13:00:29;19.50;72.20
51215;DHT22;63849;47.546;19.254;2023-05-15T13:02:56;19.50;73.50
51215;DHT22;63849;47.546;19.254;2023-05-15T13:05:23;19.40;74.70
51215;DHT22;63849;47.546;19.254;2023-05-15T13:07:49;19.30;74.90
51215;DHT22;63849;47.546;19.254;2023-05-15T13:10:22;19.10;74.70
51215;DHT22;63849;47.546;19.254;2023-05-15T13:12:52;18.80;74.60
51215;DHT22;63849;47.546;19.254;2023-05-15T13:15:29;18.80;76.00
51215;DHT22;63849;47.546;19.254;2023-05-15T13:20:44;19.00;76.50
51215;DHT22;63849;47.546;19.254;2023-05-15T13:23:15;19.10;75.80
51215;DHT22;63849;47.546;19.254;2023-05-15T13:25:42;18.90;73.40
51215;DHT22;63849;47.546;19.254;2023-05-15T13:28:15;19.20;74.20
51215;DHT22;63849;47.546;19.254;2023-05-15T13:30:40;19.40;74.40
51215;DHT22;63849;47.546;19.254;2023-05-15T13:33:07;19.70;74.60
51215;DHT22;63849;47.546;19.254;2023-05-15T13:35:34;19.90;72.20
51215;DHT22;63849;47.546;19.254;2023-05-15T13:38:00;20.00;72.50
51215;DHT22;63849;47.546;19.254;2023-05-15T13:40:26;20.00;72.50
51215;DHT22;63849;47.546;19.254;2023-05-15T13:42:52;19.60;72.80
51215;DHT22;63849;47.546;19.254;2023-05-15T13:45:18;19.50;74.80
51215;DHT22;63849;47.546;19.254;2023-05-15T13:47:45;19.30;72.70
51215;DHT22;63849;47.546;19.254;2023-05-15T13:50:13;19.00;74.60
51215;DHT22;63849;47.546;19.254;2023-05-15T13:52:40;18.80;75.50
51215;DHT22;63849;47.546;19.254;2023-05-15T13:55:07;18.60;76.40
51215;DHT22;63849;47.546;19.254;2023-05-15T13:57:35;18.40;78.30
51215;DHT22;63849;47.546;19.254;2023-05-15T14:00:03;18.40;79.80
51215;DHT22;63849;47.546;19.254;2023-05-15T14:02:31;18.40;79.30
51215;DHT22;63849;47.546;19.254;2023-05-15T14:04:57;18.60;77.30
51215;DHT22;63849;47.546;19.254;2023-05-15T14:07:23;18.80;75.80
51215;DHT22;63849;47.546;19.254;2023-05-15T14:09:50;18.80;74.20
51215;DHT22;63849;47.546;19.254;2023-05-15T14:12:16;19.00;75.20
51215;DHT22;63849;47.546;19.254;2023-05-15T14:14:43;19.10;76.50
51215;DHT22;63849;47.546;19.254;2023-05-15T14:17:09;19.10;76.80
51215;DHT22;63849;47.546;19.254;2023-05-15T14:19:35;19.00;75.00
51215;DHT22;63849;47.546;19.254;2023-05-15T14:22:01;18.90;75.00
51215;DHT22;63849;47.546;19.254;2023-05-15T14:24:26;18.90;75.70
51215;DHT22;63849;47.546;19.254;2023-05-15T14:26:52;18.70;76.30
51215;DHT22;63849;47.546;19.254;2023-05-15T14:29:18;18.50;76.70
51215;DHT22;63849;47.546;19.254;2023-05-15T14:31:44;18.40;76.90
51215;DHT22;63849;47.546;19.254;2023-05-15T14:34:09;18.30;75.20
51215;DHT22;63849;47.546;19.254;2023-05-15T14:36:35;18.10;77.40
51215;DHT22;63849;47.546;19.254;2023-05-15T14:39:01;17.90;78.40
51215;DHT22;63849;47.546;19.254;2023-05-15T14:41:27;17.80;79.60
51215;DHT22;63849;47.546;19.254;2023-05-15T14:43:53;17.70;80.30
51215;DHT22;63849;47.546;19.254;2023-05-15T14:46:19;17.60;80.90
51215;DHT22;63849;47.546;19.254;2023-05-15T14:48:44;17.40;82.20
51215;DHT22;63849;47.546;19.254;2023-05-15T14:51:10;17.40;82.40
51215;DHT22;63849;47.546;19.254;2023-05-15T14:53:36;17.20;83.30
51215;DHT22;63849;47.546;19.254;2023-05-15T14:56:02;17.20;83.80
51215;DHT22;63849;47.546;19.254;2023-05-15T14:58:28;17.00;84.30
51215;DHT22;63849;47.546;19.254;2023-05-15T15:00:55;17.00;84.70
51215;DHT22;63849;47.546;19.254;2023-05-15T15:03:21;16.90;85.10
51215;DHT22;63849;47.546;19.254;2023-05-15T15:05:49;16.80;85.90
51215;DHT22;63849;47.546;19.254;2023-05-15T15:08:16;16.80;86.20
51215;DHT22;63849;47.546;19.254;2023-05-15T15:10:42;16.80;86.50
51215;DHT22;63849;47.546;19.254;2023-05-15T15:13:08;16.80;86.90
51215;DHT22;63849;47.546;19.254;2023-05-15T15:15:36;16.90;87.20
51215;DHT22;63849;47.546;19.254;2023-05-15T15:18:02;16.90;87.20
51215;DHT22;63849;47.546;19.254;2023-05-15T15:20:28;16.90;87.20
51215;DHT22;63849;47.546;19.254;2023-05-15T15:22:54;17.00;87.30
51215;DHT22;63849;47.546;19.254;2023-05-15T15:25:20;17.10;86.20
51215;DHT22;63849;47.546;19.254;2023-05-15T15:27:47;17.10;85.80
51215;DHT22;63849;47.546;19.254;2023-05-15T15:30:14;17.10;84.70
51215;DHT22;63849;47.546;19.254;2023-05-15T15:32:41;17.30;83.60
51215;DHT22;63849;47.546;19.254;2023-05-15T15:35:07;17.30;83.10
51215;DHT22;63849;47.546;19.254;2023-05-15T15:37:34;17.40;82.90
51215;DHT22;63849;47.546;19.254;2023-05-15T15:40:01;17.50;83.20
51215;DHT22;63849;47.546;19.254;2023-05-15T15:42:27;17.40;82.60
51215;DHT22;63849;47.546;19.254;2023-05-15T15:44:57;17.50;82.90
51215;DHT22;63849;47.546;19.254;2023-05-15T15:47:23;17.40;83.20
51215;DHT22;63849;47.546;19.254;2023-05-15T15:49:50;17.40;82.70
51215;DHT22;63849;47.546;19.254;2023-05-15T15:52:16;17.50;83.90